sensor_id;sensor_type;location;lat;lon;timestamp;P1;durP1;ratioP1;P2;durP2;ratioP2
7661;SDS011;30314;48.184;11.510;2023-06-10T00:02:01;5.40;;;4.83;;
7661;SDS011;30314;48.184;11.510;2023-06-10T00:04:28;5.90;;;5.23;;
7661;SDS011;30314;48.184;11.510;2023-06-10T00:06:54;6.83;;;5.13;;
7661;SDS011;30314;48.184;11.510;2023-06-10T00:09:21;10.43;;;5.77;;
7661;SDS011;30314;48.184;11.510;2023-06-10T00:11:49;6.37;;;5.70;;
7661;SDS011;30314;48.184;11.510;2023-06-10T00:14:15;9.20;;;5.93;;
7661;SDS011;30314;48.184;11.510;2023-06-10T00:16:42;7.37;;;5.67;;
7661;SDS011;30314;48.184;11.510;2023-06-10T00:19:12;8.07;;;6.40;;
7661;SDS011;30314;48.184;11.510;2023-06-10T00:21:40;7.47;;;6.30;;
7661;SDS011;30314;48.184;11.510;2023-06-10T00:24:07;5.70;;;5.10;;
7661;SDS011;30314;48.184;11.510;2023-06-10T00:26:38;8.53;;;6.57;;
7661;SDS011;30314;48.184;11.510;2023-06-10T00:29:06;8.30;;;6.90;;
7661;SDS011;30314;48.184;11.510;2023-06-10T00:31:37;9.50;;;6.47;;
7661;SDS011;30314;48.184;11.510;2023-06-10T00:34:06;8.57;;;6.30;;
7661;SDS011;30314;48.184;11.510;2023-06-10T00:36:33;9.87;;;6.60;;
7661;SDS011;30314;48.184;11.510;2023-06-10T00:39:00;7.50;;;6.00;;
7661;SDS011;30314;48.184;11.510;2023-06-10T00:41:26;7.57;;;6.30;;
7661;SDS011;30314;48.184;11.510;2023-06-10T00:43:53;11.60;;;6.50;;
7661;SDS011;30314;48.184;11.510;2023-06-10T00:46:20;6.90;;;5.80;;
7661;SDS011;30314;48.184;11.510;2023-06-10T00:48:48;7.47;;;5.70;;
7661;SDS011;30314;48.184;11.510;2023-06-10T00:51:15;7.80;;;5.27;;
7661;SDS011;30314;48.184;11.510;2023-06-10T00:53:42;8.43;;;5.47;;
7661;SDS011;30314;48.184;11.510;2023-06-10T00:56:10;7.27;;;5.50;;
7661;SDS011;30314;48.184;11.510;2023-06-10T00:58:36;8.93;;;7.27;;
7661;SDS011;30314;48.184;11.510;2023-06-10T01:01:03;8.13;;;6.23;;
7661;SDS011;30314;48.184;11.510;2023-06-10T01:03:30;7.30;;;6.17;;
7661;SDS011;30314;48.184;11.510;2023-06-10T01:09:17;7.60;;;6.40;;
7661;SDS011;30314;48.184;11.510;2023-06-10T01:11:52;6.57;;;5.87;;
7661;SDS011;30314;48.184;11.510;2023-06-10T01:14:37;6.27;;;5.67;;
7661;SDS011;30314;48.184;11.510;2023-06-10T01:17:11;10.03;;;6.30;;
7661;SDS011;30314;48.184;11.510;2023-06-10T01:19:38;8.07;;;5.93;;
7661;SDS011;30314;48.184;11.510;2023-06-10T01:22:07;8.50;;;6.50;;
7661;SDS011;30314;48.184;11.510;2023-06-10T01:24:33;7.50;;;5.70;;
7661;SDS011;30314;48.184;11.510;2023-06-10T01:27:01;8.83;;;6.00;;
7661;SDS011;30314;48.184;11.510;2023-06-10T01:29:41;8.60;;;6.73;;
7661;SDS011;30314;48.184;11.510;2023-06-10T01:32:17;8.10;;;6.57;;
7661;SDS011;30314;48.184;11.510;2023-06-10T01:34:48;8.90;;;7.00;;
7661;SDS011;30314;48.184;11.510;2023-06-10T01:37:16;7.70;;;5.83;;
7661;SDS011;30314;48.184;11.510;2023-06-10T01:39:46;7.10;;;6.03;;
7661;SDS011;30314;48.184;11.510;2023-06-10T01:42:13;6.87;;;5.67;;
7661;SDS011;30314;48.184;11.510;2023-06-10T01:44:41;8.90;;;5.73;;
7661;SDS011;30314;48.184;11.510;2023-06-10T01:47:08;7.47;;;6.10;;
7661;SDS011;30314;48.184;11.510;2023-06-10T01:49:35;8.00;;;6.47;;
7661;SDS011;30314;48.184;11.510;2023-06-10T01:52:02;7.50;;;6.30;;
7661;SDS011;30314;48.184;11.510;2023-06-10T01:54:29;7.77;;;6.93;;
7661;SDS011;30314;48.184;11.510;2023-06-10T01:56:55;7.70;;;6.70;;
7661;SDS011;30314;48.184;11.510;2023-06-10T01:59:22;6.97;;;6.17;;
7661;SDS011;30314;48.184;11.510;2023-06-10T02:01:48;8.60;;;6.77;;
7661;SDS011;30314;48.184;11.510;2023-06-10T02:04:15;10.80;;;7.20;;
7661;SDS011;30314;48.184;11.510;2023-06-10T02:06:42;9.13;;;7.70;;
7661;SDS011;30314;48.184;11.510;2023-06-10T02:09:09;10.37;;;6.73;;
7661;SDS011;30314;48.184;11.510;2023-06-10T02:11:36;7.77;;;6.97;;
7661;SDS011;30314;48.184;11.510;2023-06-10T02:14:02;9.27;;;7.50;;
7661;SDS011;30314;48.184;11.510;2023-06-10T02:16:29;7.93;;;7.13;;
7661;SDS011;30314;48.184;11.510;2023-06-10T02:18:57;7.67;;;6.60;;
7661;SDS011;30314;48.184;11.510;2023-06-10T02:21:24;8.30;;;7.10;;
7661;SDS011;30314;48.184;11.510;2023-06-10T02:23:50;10.43;;;7.57;;
7661;SDS011;30314;48.184;11.510;2023-06-10T02:26:17;9.40;;;6.80;;
7661;SDS011;30314;48.184;11.510;2023-06-10T02:28:43;10.83;;;7.60;;
7661;SDS011;30314;48.184;11.510;2023-06-10T02:31:11;11.00;;;7.10;;
7661;SDS011;30314;48.184;11.510;2023-06-10T02:33:39;8.70;;;6.53;;
7661;SDS011;30314;48.184;11.510;2023-06-10T02:36:07;9.83;;;7.00;;
7661;SDS011;30314;48.184;11.510;2023-06-10T02:38:33;9.40;;;7.63;;
7661;SDS011;30314;48.184;11.510;2023-06-10T02:41:00;11.33;;;8.20;;
7661;SDS011;30314;48.184;11.510;2023-06-10T02:43:27;8.10;;;7.20;;
7661;SDS011;30314;48.184;11.510;2023-06-10T02:45:54;11.00;;;7.83;;
7661;SDS011;30314;48.184;11.510;2023-06-10T02:48:23;10.00;;;7.67;;
7661;SDS011;30314;48.184;11.510;2023-06-10T02:50:50;10.03;;;7.30;;
7661;SDS011;30314;48.184;11.510;2023-06-10T02:53:32;15.30;;;7.40;;
7661;SDS011;30314;48.184;11.510;2023-06-10T02:56:04;10.00;;;7.07;;
7661;SDS011;30314;48.184;11.510;2023-06-10T02:58:31;11.07;;;7.37;;
7661;SDS011;30314;48.184;11.510;2023-06-10T03:00:58;12.87;;;7.60;;
7661;SDS011;30314;48.184;11.510;2023-06-10T03:03:27;9.73;;;7.50;;
7661;SDS011;30314;48.184;11.510;2023-06-10T03:06:03;9.77;;;7.80;;
7661;SDS011;30314;48.184;11.510;2023-06-10T03:08:31;9.83;;;7.20;;
7661;SDS011;30314;48.184;11.510;2023-06-10T03:11:01;8.83;;;7.67;;
7661;SDS011;30314;48.184;11.510;2023-06-10T03:13:30;10.03;;;7.47;;
7661;SDS011;30314;48.184;11.510;2023-06-10T03:15:56;8.90;;;7.53;;
7661;SDS011;30314;48.184;11.510;2023-06-10T03:18:25;10.20;;;8.13;;
7661;SDS011;30314;48.184;11.510;2023-06-10T03:20:53;11.30;;;7.17;;
7661;SDS011;30314;48.184;11.510;2023-06-10T03:23:25;17.73;;;8.67;;
7661;SDS011;30314;48.184;11.510;2023-06-10T03:25:53;9.40;;;7.20;;
7661;SDS011;30314;48.184;11.510;2023-06-10T03:28:22;10.83;;;8.53;;
7661;SDS011;30314;48.184;11.510;2023-06-10T03:30:49;8.10;;;7.27;;
7661;SDS011;30314;48.184;11.510;2023-06-10T03:33:16;10.40;;;8.13;;
7661;SDS011;30314;48.184;11.510;2023-06-10T03:35:43;10.17;;;7.83;;
7661;SDS011;30314;48.184;11.510;2023-06-10T03:38:12;11.33;;;8.60;;
7661;SDS011;30314;48.184;11.510;2023-06-10T03:40:39;10.60;;;8.33;;
7661;SDS011;30314;48.184;11.510;2023-06-10T03:43:06;10.17;;;8.10;;
7661;SDS011;30314;48.184;11.510;2023-06-10T03:45:32;10.33;;;9.00;;
7661;SDS011;30314;48.184;11.510;2023-06-10T03:48:00;9.60;;;8.60;;
7661;SDS011;30314;48.184;11.510;2023-06-10T03:50:35;12.93;;;9.20;;
7661;SDS011;30314;48.184;11.510;2023-06-10T03:53:03;11.90;;;9.13;;
7661;SDS011;30314;48.184;11.510;2023-06-10T03:55:30;12.23;;;9.60;;
7661;SDS011;30314;48.184;11.510;2023-06-10T03:57:59;12.83;;;9.30;;
7661;SDS011;30314;48.184;11.510;2023-06-10T04:00:25;11.73;;;8.03;;
7661;SDS011;30314;48.184;11.510;2023-06-10T04:02:52;10.47;;;8.73;;
7661;SDS011;30314;48.184;11.510;2023-06-10T04:05:28;14.00;;;9.40;;
7661;SDS011;30314;48.184;11.510;2023-06-10T04:07:56;11.17;;;9.13;;
7661;SDS011;30314;48.184;11.510;2023-06-10T04:10:23;12.47;;;9.77;;
7661;SDS011;30314;48.184;11.510;2023-06-10T04:12:52;14.60;;;9.70;;
7661;SDS011;30314;48.184;11.510;2023-06-10T04:15:18;10.23;;;9.13;;
7661;SDS011;30314;48.184;11.510;2023-06-10T04:17:45;10.53;;;8.50;;
7661;SDS011;30314;48.184;11.510;2023-06-10T04:20:13;11.97;;;8.53;;
7661;SDS011;30314;48.184;11.510;2023-06-10T04:22:43;11.37;;;9.10;;
7661;SDS011;30314;48.184;11.510;2023-06-10T04:25:10;12.37;;;9.57;;
7661;SDS011;30314;48.184;11.510;2023-06-10T04:27:39;11.07;;;9.37;;
7661;SDS011;30314;48.184;11.510;2023-06-10T04:30:06;12.40;;;9.57;;
7661;SDS011;30314;48.184;11.510;2023-06-10T04:32:35;13.23;;;9.20;;
7661;SDS011;30314;48.184;11.510;2023-06-10T04:35:03;13.27;;;8.73;;
7661;SDS011;30314;48.184;11.510;2023-06-10T04:37:30;11.40;;;9.10;;
7661;SDS011;30314;48.184;11.510;2023-06-10T04:39:58;11.00;;;8.80;;
7661;SDS011;30314;48.184;11.510;2023-06-10T04:42:26;15.93;;;10.00;;
7661;SDS011;30314;48.184;11.510;2023-06-10T04:44:53;11.40;;;9.37;;
7661;SDS011;30314;48.184;11.510;2023-06-10T04:47:20;12.20;;;9.73;;
7661;SDS011;30314;48.184;11.510;2023-06-10T04:49:47;11.80;;;8.90;;
7661;SDS011;30314;48.184;11.510;2023-06-10T04:52:14;13.10;;;9.40;;
7661;SDS011;30314;48.184;11.510;2023-06-10T04:54:44;11.53;;;9.00;;
7661;SDS011;30314;48.184;11.510;2023-06-10T04:57:11;13.90;;;10.00;;
7661;SDS011;30314;48.184;11.510;2023-06-10T04:59:37;12.47;;;9.23;;
7661;SDS011;30314;48.184;11.510;2023-06-10T05:02:04;11.20;;;9.10;;
7661;SDS011;30314;48.184;11.510;2023-06-10T05:04:31;10.80;;;9.00;;
7661;SDS011;30314;48.184;11.510;2023-06-10T05:06:58;10.73;;;8.30;;
7661;SDS011;30314;48.184;11.510;2023-06-10T05:09:25;14.73;;;9.30;;
7661;SDS011;30314;48.184;11.510;2023-06-10T05:11:52;10.30;;;8.33;;
7661;SDS011;30314;48.184;11.510;2023-06-10T05:14:20;10.50;;;8.33;;
7661;SDS011;30314;48.184;11.510;2023-06-10T05:16:47;11.27;;;8.90;;
7661;SDS011;30314;48.184;11.510;2023-06-10T05:19:14;15.43;;;9.67;;
7661;SDS011;30314;48.184;11.510;2023-06-10T05:21:43;11.80;;;9.77;;
7661;SDS011;30314;48.184;11.510;2023-06-10T05:24:11;10.90;;;8.70;;
7661;SDS011;30314;48.184;11.510;2023-06-10T05:26:38;12.50;;;9.53;;
7661;SDS011;30314;48.184;11.510;2023-06-10T05:29:05;10.87;;;8.80;;
7661;SDS011;30314;48.184;11.510;2023-06-10T05:31:32;13.17;;;8.97;;
7661;SDS011;30314;48.184;11.510;2023-06-10T05:33:58;10.77;;;8.20;;
7661;SDS011;30314;48.184;11.510;2023-06-10T05:36:25;11.67;;;9.40;;
7661;SDS011;30314;48.184;11.510;2023-06-10T05:38:53;12.50;;;9.13;;
7661;SDS011;30314;48.184;11.510;2023-06-10T05:41:20;13.87;;;10.03;;
7661;SDS011;30314;48.184;11.510;2023-06-10T05:43:48;13.23;;;10.00;;
7661;SDS011;30314;48.184;11.510;2023-06-10T05:46:14;13.90;;;9.60;;
7661;SDS011;30314;48.184;11.510;2023-06-10T05:48:41;13.90;;;9.30;;
7661;SDS011;30314;48.184;11.510;2023-06-10T05:51:08;14.47;;;9.93;;
7661;SDS011;30314;48.184;11.510;2023-06-10T05:53:34;13.23;;;9.43;;
7661;SDS011;30314;48.184;11.510;2023-06-10T05:56:01;11.17;;;9.00;;
7661;SDS011;30314;48.184;11.510;2023-06-10T05:58:28;12.83;;;9.23;;
7661;SDS011;30314;48.184;11.510;2023-06-10T06:00:54;11.43;;;9.83;;
7661;SDS011;30314;48.184;11.510;2023-06-10T06:03:21;13.00;;;9.57;;
7661;SDS011;30314;48.184;11.510;2023-06-10T06:05:48;11.20;;;8.23;;
7661;SDS011;30314;48.184;11.510;2023-06-10T06:08:15;10.33;;;9.23;;
7661;SDS011;30314;48.184;11.510;2023-06-10T06:10:44;10.57;;;8.50;;
7661;SDS011;30314;48.184;11.510;2023-06-10T06:13:11;12.00;;;8.60;;
7661;SDS011;30314;48.184;11.510;2023-06-10T06:15:38;10.13;;;7.50;;
7661;SDS011;30314;48.184;11.510;2023-06-10T06:18:05;13.27;;;9.50;;
7661;SDS011;30314;48.184;11.510;2023-06-10T06:20:31;12.30;;;9.07;;
7661;SDS011;30314;48.184;11.510;2023-06-10T06:22:58;11.13;;;8.07;;
7661;SDS011;30314;48.184;11.510;2023-06-10T06:25:24;10.30;;;8.50;;
7661;SDS011;30314;48.184;11.510;2023-06-10T06:27:51;9.87;;;8.30;;
7661;SDS011;30314;48.184;11.510;2023-06-10T06:30:17;9.40;;;7.57;;
7661;SDS011;30314;48.184;11.510;2023-06-10T06:32:44;12.77;;;10.43;;
7661;SDS011;30314;48.184;11.510;2023-06-10T06:35:11;13.97;;;10.67;;
7661;SDS011;30314;48.184;11.510;2023-06-10T06:37:37;12.37;;;9.07;;
7661;SDS011;30314;48.184;11.510;2023-06-10T06:40:18;20.43;;;16.13;;
7661;SDS011;30314;48.184;11.510;2023-06-10T06:42:45;20.60;;;13.80;;
7661;SDS011;30314;48.184;11.510;2023-06-10T06:45:21;20.27;;;16.00;;
7661;SDS011;30314;48.184;11.510;2023-06-10T06:47:49;20.30;;;14.30;;
7661;SDS011;30314;48.184;11.510;2023-06-10T06:50:16;15.13;;;12.20;;
7661;SDS011;30314;48.184;11.510;2023-06-10T06:52:44;15.00;;;11.00;;
7661;SDS011;30314;48.184;11.510;2023-06-10T06:55:10;13.53;;;10.00;;
7661;SDS011;30314;48.184;11.510;2023-06-10T06:57:37;12.40;;;8.17;;
7661;SDS011;30314;48.184;11.510;2023-06-10T07:00:05;9.27;;;7.33;;
7661;SDS011;30314;48.184;11.510;2023-06-10T07:02:32;9.23;;;7.57;;
7661;SDS011;30314;48.184;11.510;2023-06-10T07:04:59;10.37;;;7.60;;
7661;SDS011;30314;48.184;11.510;2023-06-10T07:07:26;8.60;;;6.83;;
7661;SDS011;30314;48.184;11.510;2023-06-10T07:09:52;10.77;;;7.40;;
7661;SDS011;30314;48.184;11.510;2023-06-10T07:12:19;10.60;;;7.20;;
7661;SDS011;30314;48.184;11.510;2023-06-10T07:14:48;9.03;;;7.23;;
7661;SDS011;30314;48.184;11.510;2023-06-10T07:17:15;9.13;;;7.43;;
7661;SDS011;30314;48.184;11.510;2023-06-10T07:19:42;9.43;;;7.30;;
7661;SDS011;30314;48.184;11.510;2023-06-10T07:22:08;9.97;;;7.27;;
7661;SDS011;30314;48.184;11.510;2023-06-10T07:24:35;8.97;;;7.40;;
7661;SDS011;30314;48.184;11.510;2023-06-10T07:27:01;8.37;;;6.00;;
7661;SDS011;30314;48.184;11.510;2023-06-10T07:29:28;7.50;;;5.97;;
7661;SDS011;30314;48.184;11.510;2023-06-10T07:31:54;8.33;;;5.53;;
7661;SDS011;30314;48.184;11.510;2023-06-10T07:34:21;13.20;;;7.03;;
7661;SDS011;30314;48.184;11.510;2023-06-10T07:36:47;6.67;;;5.57;;
7661;SDS011;30314;48.184;11.510;2023-06-10T07:39:14;7.60;;;5.03;;
7661;SDS011;30314;48.184;11.510;2023-06-10T07:41:41;7.20;;;5.43;;
7661;SDS011;30314;48.184;11.510;2023-06-10T07:44:07;6.07;;;5.00;;
7661;SDS011;30314;48.184;11.510;2023-06-10T07:46:34;5.83;;;4.40;;
7661;SDS011;30314;48.184;11.510;2023-06-10T07:49:00;5.87;;;4.80;;
7661;SDS011;30314;48.184;11.510;2023-06-10T07:51:28;4.77;;;4.27;;
7661;SDS011;30314;48.184;11.510;2023-06-10T07:53:55;9.00;;;4.83;;
7661;SDS011;30314;48.184;11.510;2023-06-10T07:56:21;5.83;;;4.40;;
7661;SDS011;30314;48.184;11.510;2023-06-10T07:58:48;4.23;;;3.67;;
7661;SDS011;30314;48.184;11.510;2023-06-10T08:01:14;4.37;;;3.70;;
7661;SDS011;30314;48.184;11.510;2023-06-10T08:03:42;4.50;;;4.00;;
7661;SDS011;30314;48.184;11.510;2023-06-10T08:06:09;5.00;;;3.30;;
7661;SDS011;30314;48.184;11.510;2023-06-10T08:08:37;4.33;;;3.93;;
7661;SDS011;30314;48.184;11.510;2023-06-10T08:11:12;5.23;;;3.73;;
7661;SDS011;30314;48.184;11.510;2023-06-10T08:13:38;7.83;;;3.40;;
7661;SDS011;30314;48.184;11.510;2023-06-10T08:16:06;4.87;;;4.37;;
7661;SDS011;30314;48.184;11.510;2023-06-10T08:18:32;4.00;;;2.90;;
7661;SDS011;30314;48.184;11.510;2023-06-10T08:21:00;4.20;;;3.23;;
7661;SDS011;30314;48.184;11.510;2023-06-10T08:23:26;4.33;;;3.70;;
7661;SDS011;30314;48.184;11.510;2023-06-10T08:25:53;4.87;;;3.60;;
7661;SDS011;30314;48.184;11.510;2023-06-10T08:28:20;5.27;;;4.70;;
7661;SDS011;30314;48.184;11.510;2023-06-10T08:30:47;4.33;;;3.60;;
7661;SDS011;30314;48.184;11.510;2023-06-10T08:33:14;4.70;;;3.80;;
7661;SDS011;30314;48.184;11.510;2023-06-10T08:35:40;6.10;;;4.50;;
7661;SDS011;30314;48.184;11.510;2023-06-10T08:38:07;5.23;;;4.17;;
7661;SDS011;30314;48.184;11.510;2023-06-10T08:40:34;5.80;;;4.00;;
7661;SDS011;30314;48.184;11.510;2023-06-10T08:43:22;6.23;;;4.60;;
7661;SDS011;30314;48.184;11.510;2023-06-10T08:45:53;4.77;;;4.20;;
7661;SDS011;30314;48.184;11.510;2023-06-10T08:48:26;4.80;;;4.30;;
7661;SDS011;30314;48.184;11.510;2023-06-10T08:50:57;5.40;;;4.47;;
7661;SDS011;30314;48.184;11.510;2023-06-10T08:53:24;7.00;;;5.07;;
7661;SDS011;30314;48.184;11.510;2023-06-10T08:55:52;7.00;;;4.77;;
7661;SDS011;30314;48.184;11.510;2023-06-10T08:58:19;6.87;;;5.30;;
7661;SDS011;30314;48.184;11.510;2023-06-10T09:00:46;4.97;;;4.47;;
7661;SDS011;30314;48.184;11.510;2023-06-10T09:03:13;5.50;;;4.57;;
7661;SDS011;30314;48.184;11.510;2023-06-10T09:05:40;5.77;;;4.60;;
7661;SDS011;30314;48.184;11.510;2023-06-10T09:08:08;5.53;;;4.20;;
7661;SDS011;30314;48.184;11.510;2023-06-10T09:10:35;8.47;;;5.57;;
7661;SDS011;30314;48.184;11.510;2023-06-10T09:13:02;5.97;;;5.00;;
7661;SDS011;30314;48.184;11.510;2023-06-10T09:15:29;7.13;;;5.27;;
7661;SDS011;30314;48.184;11.510;2023-06-10T09:17:55;5.20;;;4.70;;
7661;SDS011;30314;48.184;11.510;2023-06-10T09:20:22;5.60;;;4.80;;
7661;SDS011;30314;48.184;11.510;2023-06-10T09:22:49;6.40;;;5.07;;
7661;SDS011;30314;48.184;11.510;2023-06-10T09:25:16;5.97;;;4.90;;
7661;SDS011;30314;48.184;11.510;2023-06-10T09:27:51;4.30;;;3.90;;
7661;SDS011;30314;48.184;11.510;2023-06-10T09:30:24;4.80;;;3.90;;
7661;SDS011;30314;48.184;11.510;2023-06-10T09:32:52;8.47;;;4.70;;
7661;SDS011;30314;48.184;11.510;2023-06-10T09:35:22;5.33;;;4.47;;
7661;SDS011;30314;48.184;11.510;2023-06-10T09:37:51;6.13;;;5.07;;
7661;SDS011;30314;48.184;11.510;2023-06-10T09:40:22;6.40;;;5.00;;
7661;SDS011;30314;48.184;11.510;2023-06-10T09:45:22;7.17;;;3.83;;
7661;SDS011;30314;48.184;11.510;2023-06-10T09:47:53;4.77;;;4.10;;
7661;SDS011;30314;48.184;11.510;2023-06-10T09:50:20;5.77;;;4.60;;
7661;SDS011;30314;48.184;11.510;2023-06-10T09:52:47;7.90;;;5.20;;
7661;SDS011;30314;48.184;11.510;2023-06-10T09:55:14;6.57;;;4.30;;
7661;SDS011;30314;48.184;11.510;2023-06-10T09:57:41;7.53;;;4.90;;
7661;SDS011;30314;48.184;11.510;2023-06-10T10:00:11;4.77;;;4.30;;
7661;SDS011;30314;48.184;11.510;2023-06-10T10:05:14;11.17;;;5.33;;
7661;SDS011;30314;48.184;11.510;2023-06-10T10:07:42;4.53;;;4.03;;
7661;SDS011;30314;48.184;11.510;2023-06-10T10:10:09;5.33;;;4.10;;
7661;SDS011;30314;48.184;11.510;2023-06-10T10:12:37;6.03;;;3.97;;
7661;SDS011;30314;48.184;11.510;2023-06-10T10:15:08;4.70;;;3.73;;
7661;SDS011;30314;48.184;11.510;2023-06-10T10:17:40;5.33;;;4.00;;
7661;SDS011;30314;48.184;11.510;2023-06-10T10:20:24;3.50;;;3.20;;
7661;SDS011;30314;48.184;11.510;2023-06-10T10:22:54;5.17;;;4.20;;
7661;SDS011;30314;48.184;11.510;2023-06-10T10:25:23;5.87;;;4.10;;
7661;SDS011;30314;48.184;11.510;2023-06-10T10:27:57;5.77;;;4.13;;
7661;SDS011;30314;48.184;11.510;2023-06-10T10:30:28;5.33;;;4.07;;
7661;SDS011;30314;48.184;11.510;2023-06-10T10:33:04;4.73;;;4.00;;
7661;SDS011;30314;48.184;11.510;2023-06-10T10:35:36;7.50;;;4.60;;
7661;SDS011;30314;48.184;11.510;2023-06-10T10:38:03;5.27;;;4.77;;
7661;SDS011;30314;48.184;11.510;2023-06-10T10:40:31;4.03;;;3.63;;
7661;SDS011;30314;48.184;11.510;2023-06-10T10:42:59;5.17;;;3.57;;
7661;SDS011;30314;48.184;11.510;2023-06-10T10:45:29;4.67;;;3.80;;
7661;SDS011;30314;48.184;11.510;2023-06-10T10:47:56;4.50;;;3.53;;
7661;SDS011;30314;48.184;11.510;2023-06-10T10:50:23;6.47;;;3.90;;
7661;SDS011;30314;48.184;11.510;2023-06-10T10:52:51;4.00;;;3.33;;
7661;SDS011;30314;48.184;11.510;2023-06-10T10:55:20;4.80;;;3.83;;
7661;SDS011;30314;48.184;11.510;2023-06-10T10:57:57;4.33;;;3.93;;
7661;SDS011;30314;48.184;11.510;2023-06-10T11:00:28;4.37;;;3.93;;
7661;SDS011;30314;48.184;11.510;2023-06-10T11:03:03;4.90;;;4.40;;
7661;SDS011;30314;48.184;11.510;2023-06-10T11:05:37;5.60;;;4.50;;
7661;SDS011;30314;48.184;11.510;2023-06-10T11:08:05;5.10;;;3.70;;
7661;SDS011;30314;48.184;11.510;2023-06-10T11:10:35;9.23;;;3.80;;
7661;SDS011;30314;48.184;11.510;2023-06-10T11:13:07;4.37;;;3.80;;
7661;SDS011;30314;48.184;11.510;2023-06-10T11:15:56;5.60;;;4.13;;
7661;SDS011;30314;48.184;11.510;2023-06-10T11:18:30;4.87;;;3.03;;
7661;SDS011;30314;48.184;11.510;2023-06-10T11:21:05;4.70;;;3.97;;
7661;SDS011;30314;48.184;11.510;2023-06-10T11:28:36;4.00;;;3.17;;
7661;SDS011;30314;48.184;11.510;2023-06-10T11:31:03;4.53;;;3.83;;
7661;SDS011;30314;48.184;11.510;2023-06-10T11:33:29;4.90;;;4.10;;
7661;SDS011;30314;48.184;11.510;2023-06-10T11:35:57;4.00;;;3.33;;
7661;SDS011;30314;48.184;11.510;2023-06-10T11:38:26;5.80;;;4.80;;
7661;SDS011;30314;48.184;11.510;2023-06-10T11:40:54;4.20;;;3.43;;
7661;SDS011;30314;48.184;11.510;2023-06-10T11:43:21;5.27;;;4.40;;
7661;SDS011;30314;48.184;11.510;2023-06-10T11:45:53;5.50;;;4.40;;
7661;SDS011;30314;48.184;11.510;2023-06-10T11:48:20;4.60;;;3.93;;
7661;SDS011;30314;48.184;11.510;2023-06-10T11:50:47;4.67;;;3.30;;
7661;SDS011;30314;48.184;11.510;2023-06-10T11:53:14;4.43;;;3.80;;
7661;SDS011;30314;48.184;11.510;2023-06-10T11:55:47;5.07;;;3.97;;
7661;SDS011;30314;48.184;11.510;2023-06-10T12:00:48;5.20;;;3.83;;
7661;SDS011;30314;48.184;11.510;2023-06-10T12:03:24;4.60;;;3.70;;
7661;SDS011;30314;48.184;11.510;2023-06-10T12:08:25;3.70;;;2.97;;
7661;SDS011;30314;48.184;11.510;2023-06-10T12:10:52;6.43;;;3.30;;
7661;SDS011;30314;48.184;11.510;2023-06-10T12:13:19;4.73;;;3.60;;
7661;SDS011;30314;48.184;11.510;2023-06-10T12:15:47;5.60;;;4.00;;
7661;SDS011;30314;48.184;11.510;2023-06-10T12:18:21;4.50;;;4.00;;
7661;SDS011;30314;48.184;11.510;2023-06-10T12:20:49;4.57;;;3.57;;
7661;SDS011;30314;48.184;11.510;2023-06-10T12:23:17;5.00;;;3.87;;
7661;SDS011;30314;48.184;11.510;2023-06-10T12:25:51;4.13;;;3.57;;
7661;SDS011;30314;48.184;11.510;2023-06-10T12:28:23;5.73;;;3.70;;
7661;SDS011;30314;48.184;11.510;2023-06-10T12:30:51;5.63;;;3.70;;
7661;SDS011;30314;48.184;11.510;2023-06-10T12:35:52;3.60;;;2.70;;
7661;SDS011;30314;48.184;11.510;2023-06-10T12:38:22;3.37;;;3.07;;
7661;SDS011;30314;48.184;11.510;2023-06-10T12:40:50;3.20;;;2.90;;
7661;SDS011;30314;48.184;11.510;2023-06-10T12:43:20;3.70;;;3.30;;
7661;SDS011;30314;48.184;11.510;2023-06-10T12:45:47;3.97;;;3.50;;
7661;SDS011;30314;48.184;11.510;2023-06-10T12:48:21;4.27;;;3.27;;
7661;SDS011;30314;48.184;11.510;2023-06-10T12:50:53;3.53;;;2.80;;
7661;SDS011;30314;48.184;11.510;2023-06-10T12:53:21;3.50;;;3.20;;
7661;SDS011;30314;48.184;11.510;2023-06-10T12:55:49;3.97;;;3.30;;
7661;SDS011;30314;48.184;11.510;2023-06-10T12:58:17;3.70;;;3.03;;
7661;SDS011;30314;48.184;11.510;2023-06-10T13:00:45;4.87;;;2.80;;
7661;SDS011;30314;48.184;11.510;2023-06-10T13:03:12;6.67;;;2.70;;
7661;SDS011;30314;48.184;11.510;2023-06-10T13:05:39;3.87;;;3.47;;
7661;SDS011;30314;48.184;11.510;2023-06-10T13:08:06;3.40;;;2.97;;
7661;SDS011;30314;48.184;11.510;2023-06-10T13:10:33;4.17;;;3.57;;
7661;SDS011;30314;48.184;11.510;2023-06-10T13:13:01;4.70;;;3.70;;
7661;SDS011;30314;48.184;11.510;2023-06-10T13:15:28;5.07;;;4.03;;
7661;SDS011;30314;48.184;11.510;2023-06-10T13:17:55;7.40;;;4.10;;
7661;SDS011;30314;48.184;11.510;2023-06-10T13:20:21;3.80;;;3.40;;
7661;SDS011;30314;48.184;11.510;2023-06-10T13:22:48;8.03;;;4.40;;
7661;SDS011;30314;48.184;11.510;2023-06-10T13:25:15;4.53;;;4.10;;
7661;SDS011;30314;48.184;11.510;2023-06-10T13:27:42;6.33;;;4.20;;
7661;SDS011;30314;48.184;11.510;2023-06-10T13:30:09;4.20;;;3.80;;
7661;SDS011;30314;48.184;11.510;2023-06-10T13:32:37;4.47;;;3.37;;
7661;SDS011;30314;48.184;11.510;2023-06-10T13:35:03;5.70;;;4.63;;
7661;SDS011;30314;48.184;11.510;2023-06-10T13:37:31;3.53;;;3.10;;
7661;SDS011;30314;48.184;11.510;2023-06-10T13:39:59;4.37;;;3.97;;
7661;SDS011;30314;48.184;11.510;2023-06-10T13:42:26;7.57;;;4.60;;
7661;SDS011;30314;48.184;11.510;2023-06-10T13:44:55;6.00;;;3.60;;
7661;SDS011;30314;48.184;11.510;2023-06-10T13:47:22;5.10;;;3.70;;
7661;SDS011;30314;48.184;11.510;2023-06-10T13:49:49;4.30;;;3.67;;
7661;SDS011;30314;48.184;11.510;2023-06-10T13:52:16;4.03;;;3.63;;
7661;SDS011;30314;48.184;11.510;2023-06-10T13:54:43;4.10;;;3.40;;
7661;SDS011;30314;48.184;11.510;2023-06-10T13:57:09;3.60;;;3.30;;
7661;SDS011;30314;48.184;11.510;2023-06-10T13:59:36;3.30;;;2.80;;
7661;SDS011;30314;48.184;11.510;2023-06-10T14:02:03;3.50;;;2.73;;
7661;SDS011;30314;48.184;11.510;2023-06-10T14:04:30;4.37;;;3.23;;
7661;SDS011;30314;48.184;11.510;2023-06-10T14:06:57;5.20;;;3.10;;
7661;SDS011;30314;48.184;11.510;2023-06-10T14:09:24;3.07;;;2.67;;
7661;SDS011;30314;48.184;11.510;2023-06-10T14:11:50;3.33;;;3.03;;
7661;SDS011;30314;48.184;11.510;2023-06-10T14:14:17;4.57;;;3.23;;
7661;SDS011;30314;48.184;11.510;2023-06-10T14:16:43;4.20;;;3.67;;
7661;SDS011;30314;48.184;11.510;2023-06-10T14:19:10;5.07;;;3.37;;
7661;SDS011;30314;48.184;11.510;2023-06-10T14:21:36;4.30;;;3.90;;
7661;SDS011;30314;48.184;11.510;2023-06-10T14:24:03;4.40;;;3.57;;
7661;SDS011;30314;48.184;11.510;2023-06-10T14:26:30;4.03;;;3.40;;
7661;SDS011;30314;48.184;11.510;2023-06-10T14:28:58;4.33;;;3.33;;
7661;SDS011;30314;48.184;11.510;2023-06-10T14:31:25;4.03;;;3.63;;
7661;SDS011;30314;48.184;11.510;2023-06-10T14:33:52;3.63;;;3.30;;
7661;SDS011;30314;48.184;11.510;2023-06-10T14:36:18;5.77;;;3.93;;
7661;SDS011;30314;48.184;11.510;2023-06-10T14:38:45;7.83;;;4.80;;
7661;SDS011;30314;48.184;11.510;2023-06-10T14:41:12;5.90;;;4.90;;
7661;SDS011;30314;48.184;11.510;2023-06-10T14:43:39;4.60;;;3.70;;
7661;SDS011;30314;48.184;11.510;2023-06-10T14:46:05;6.27;;;3.17;;
7661;SDS011;30314;48.184;11.510;2023-06-10T14:48:32;3.70;;;3.30;;
7661;SDS011;30314;48.184;11.510;2023-06-10T14:50:59;3.97;;;3.07;;
7661;SDS011;30314;48.184;11.510;2023-06-10T14:53:26;3.37;;;2.97;;
7661;SDS011;30314;48.184;11.510;2023-06-10T14:55:53;4.10;;;2.70;;
7661;SDS011;30314;48.184;11.510;2023-06-10T14:58:19;3.10;;;2.80;;
7661;SDS011;30314;48.184;11.510;2023-06-10T15:00:46;3.10;;;2.50;;
7661;SDS011;30314;48.184;11.510;2023-06-10T15:03:12;3.83;;;3.33;;
7661;SDS011;30314;48.184;11.510;2023-06-10T15:05:39;3.00;;;2.70;;
7661;SDS011;30314;48.184;11.510;2023-06-10T15:08:05;2.60;;;2.37;;
7661;SDS011;30314;48.184;11.510;2023-06-10T15:10:32;2.90;;;2.50;;